sensor_id;sensor_type;location;lat;lon;timestamp;temperature;humidity
75819;DHT22;64453;51.944;9.796;2023-08-24T00:01:42;22.60;57.40
75819;DHT22;64453;51.944;9.796;2023-08-24T00:04:09;22.70;57.10
75819;DHT22;64453;51.944;9.796;2023-08-24T00:06:36;22.80;56.70
75819;DHT22;64453;51.944;9.796;2023-08-24T00:09:05;22.90;56.80
75819;DHT22;64453;51.944;9.796;2023-08-24T00:11:32;22.70;57.10
75819;DHT22;64453;51.944;9.796;2023-08-24T00:13:59;22.10;57.40
75819;DHT22;64453;51.944;9.796;2023-08-24T00:16:26;21.90;57.70
75819;DHT22;64453;51.944;9.796;2023-08-24T00:18:53;21.80;58.00
75819;DHT22;64453;51.944;9.796;2023-08-24T00:21:20;22.00;57.80
75819;DHT22;64453;51.944;9.796;2023-08-24T00:23:49;22.10;58.20
75819;DHT22;64453;51.944;9.796;2023-08-24T00:26:17;22.10;57.80
75819;DHT22;64453;51.944;9.796;2023-08-24T00:28:45;22.10;57.70
75819;DHT22;64453;51.944;9.796;2023-08-24T00:31:12;22.30;57.50
75819;DHT22;64453;51.944;9.796;2023-08-24T00:33:39;22.10;57.50
75819;DHT22;64453;51.944;9.796;2023-08-24T00:36:06;22.30;57.40
75819;DHT22;64453;51.944;9.796;2023-08-24T00:38:33;22.50;57.20
75819;DHT22;64453;51.944;9.796;2023-08-24T00:41:00;22.40;57.50
75819;DHT22;64453;51.944;9.796;2023-08-24T00:43:29;22.30;56.80
75819;DHT22;64453;51.944;9.796;2023-08-24T00:45:59;22.00;57.50
75819;DHT22;64453;51.944;9.796;2023-08-24T00:48:27;21.80;57.80
75819;DHT22;64453;51.944;9.796;2023-08-24T00:50:55;22.00;57.50
75819;DHT22;64453;51.944;9.796;2023-08-24T00:53:24;21.90;57.60
75819;DHT22;64453;51.944;9.796;2023-08-24T00:55:52;21.80;58.10
75819;DHT22;64453;51.944;9.796;2023-08-24T00:58:19;21.90;57.80
75819;DHT22;64453;51.944;9.796;2023-08-24T01:00:48;22.00;57.50
75819;DHT22;64453;51.944;9.796;2023-08-24T01:03:15;21.80;57.60
75819;DHT22;64453;51.944;9.796;2023-08-24T01:05:42;21.80;57.70
75819;DHT22;64453;51.944;9.796;2023-08-24T01:08:10;21.70;57.80
75819;DHT22;64453;51.944;9.796;2023-08-24T01:10:43;21.80;57.50
75819;DHT22;64453;51.944;9.796;2023-08-24T01:13:16;21.70;57.80
75819;DHT22;64453;51.944;9.796;2023-08-24T01:15:58;21.50;57.90
75819;DHT22;64453;51.944;9.796;2023-08-24T01:18:30;21.60;57.90
75819;DHT22;64453;51.944;9.796;2023-08-24T01:20:57;21.60;57.60
75819;DHT22;64453;51.944;9.796;2023-08-24T01:23:33;21.70;57.60
75819;DHT22;64453;51.944;9.796;2023-08-24T01:26:17;21.50;58.00
75819;DHT22;64453;51.944;9.796;2023-08-24T01:28:46;21.60;57.80
75819;DHT22;64453;51.944;9.796;2023-08-24T01:31:14;21.40;57.60
75819;DHT22;64453;51.944;9.796;2023-08-24T01:33:42;21.70;57.70
75819;DHT22;64453;51.944;9.796;2023-08-24T01:36:12;21.70;57.40
75819;DHT22;64453;51.944;9.796;2023-08-24T01:38:41;21.70;57.40
75819;DHT22;64453;51.944;9.796;2023-08-24T01:41:12;21.50;58.10
75819;DHT22;64453;51.944;9.796;2023-08-24T01:43:46;21.60;58.00
75819;DHT22;64453;51.944;9.796;2023-08-24T01:46:18;21.80;57.70
75819;DHT22;64453;51.944;9.796;2023-08-24T01:48:47;21.90;57.40
75819;DHT22;64453;51.944;9.796;2023-08-24T01:51:15;22.00;57.10
75819;DHT22;64453;51.944;9.796;2023-08-24T01:53:42;21.90;57.10
75819;DHT22;64453;51.944;9.796;2023-08-24T01:56:10;21.90;56.70
75819;DHT22;64453;51.944;9.796;2023-08-24T01:58:38;21.70;56.90
75819;DHT22;64453;51.944;9.796;2023-08-24T02:01:06;21.50;57.50
75819;DHT22;64453;51.944;9.796;2023-08-24T02:03:33;21.50;57.30
75819;DHT22;64453;51.944;9.796;2023-08-24T02:06:00;21.60;57.40
75819;DHT22;64453;51.944;9.796;2023-08-24T02:08:27;21.60;57.30
75819;DHT22;64453;51.944;9.796;2023-08-24T02:10:55;21.80;57.10
75819;DHT22;64453;51.944;9.796;2023-08-24T02:13:22;21.80;57.20
75819;DHT22;64453;51.944;9.796;2023-08-24T02:15:50;21.80;57.00
75819;DHT22;64453;51.944;9.796;2023-08-24T02:18:17;21.90;57.00
75819;DHT22;64453;51.944;9.796;2023-08-24T02:20:44;21.80;56.90
75819;DHT22;64453;51.944;9.796;2023-08-24T02:23:11;21.40;57.10
75819;DHT22;64453;51.944;9.796;2023-08-24T02:25:42;21.20;57.80
75819;DHT22;64453;51.944;9.796;2023-08-24T02:28:09;21.20;57.60
75819;DHT22;64453;51.944;9.796;2023-08-24T02:30:37;21.00;58.50
75819;DHT22;64453;51.944;9.796;2023-08-24T02:33:06;20.90;58.50
75819;DHT22;64453;51.944;9.796;2023-08-24T02:35:33;20.70;59.10
75819;DHT22;64453;51.944;9.796;2023-08-24T02:38:00;20.70;58.50
75819;DHT22;64453;51.944;9.796;2023-08-24T02:40:27;20.60;59.10
75819;DHT22;64453;51.944;9.796;2023-08-24T02:42:54;20.70;59.40
75819;DHT22;64453;51.944;9.796;2023-08-24T02:45:21;21.00;58.50
75819;DHT22;64453;51.944;9.796;2023-08-24T02:47:48;21.20;57.80
75819;DHT22;64453;51.944;9.796;2023-08-24T02:50:16;21.30;57.50
75819;DHT22;64453;51.944;9.796;2023-08-24T02:52:43;21.40;57.40
75819;DHT22;64453;51.944;9.796;2023-08-24T02:55:11;21.50;57.20
75819;DHT22;64453;51.944;9.796;2023-08-24T02:57:38;21.40;56.90
75819;DHT22;64453;51.944;9.796;2023-08-24T03:00:06;21.40;57.30
75819;DHT22;64453;51.944;9.796;2023-08-24T03:02:35;21.40;57.30
75819;DHT22;64453;51.944;9.796;2023-08-24T03:05:02;21.40;57.10
75819;DHT22;64453;51.944;9.796;2023-08-24T03:07:31;21.40;57.30
75819;DHT22;64453;51.944;9.796;2023-08-24T03:09:57;21.40;57.30
75819;DHT22;64453;51.944;9.796;2023-08-24T03:12:24;21.40;57.10
75819;DHT22;64453;51.944;9.796;2023-08-24T03:14:51;21.30;57.40
75819;DHT22;64453;51.944;9.796;2023-08-24T03:17:20;21.30;57.30
75819;DHT22;64453;51.944;9.796;2023-08-24T03:19:47;21.30;57.30
75819;DHT22;64453;51.944;9.796;2023-08-24T03:22:14;21.00;57.30
75819;DHT22;64453;51.944;9.796;2023-08-24T03:24:42;20.70;58.20
75819;DHT22;64453;51.944;9.796;2023-08-24T03:27:09;20.60;58.30
75819;DHT22;64453;51.944;9.796;2023-08-24T03:29:36;20.70;58.30
75819;DHT22;64453;51.944;9.796;2023-08-24T03:32:03;20.70;58.30
75819;DHT22;64453;51.944;9.796;2023-08-24T03:34:30;20.80;58.20
75819;DHT22;64453;51.944;9.796;2023-08-24T03:36:57;20.90;57.90
75819;DHT22;64453;51.944;9.796;2023-08-24T03:39:24;21.00;57.40
75819;DHT22;64453;51.944;9.796;2023-08-24T03:41:53;20.80;58.10
75819;DHT22;64453;51.944;9.796;2023-08-24T03:44:20;20.60;58.30
75819;DHT22;64453;51.944;9.796;2023-08-24T03:46:47;20.70;58.20
75819;DHT22;64453;51.944;9.796;2023-08-24T03:49:14;20.90;58.10
75819;DHT22;64453;51.944;9.796;2023-08-24T03:51:41;21.00;57.70
75819;DHT22;64453;51.944;9.796;2023-08-24T03:54:07;21.00;57.60
75819;DHT22;64453;51.944;9.796;2023-08-24T03:56:34;20.90;57.90
75819;DHT22;64453;51.944;9.796;2023-08-24T03:59:03;20.90;58.00
75819;DHT22;64453;51.944;9.796;2023-08-24T04:01:30;20.70;58.00
75819;DHT22;64453;51.944;9.796;2023-08-24T04:03:57;20.60;58.20
75819;DHT22;64453;51.944;9.796;2023-08-24T04:06:24;20.70;58.00
75819;DHT22;64453;51.944;9.796;2023-08-24T04:08:51;20.60;57.60
75819;DHT22;64453;51.944;9.796;2023-08-24T04:11:19;20.50;58.80
75819;DHT22;64453;51.944;9.796;2023-08-24T04:13:46;20.60;58.40
75819;DHT22;64453;51.944;9.796;2023-08-24T04:16:14;20.60;58.50
75819;DHT22;64453;51.944;9.796;2023-08-24T04:18:41;20.60;58.60
75819;DHT22;64453;51.944;9.796;2023-08-24T04:21:08;20.60;58.70
75819;DHT22;64453;51.944;9.796;2023-08-24T04:23:35;20.70;58.70
75819;DHT22;64453;51.944;9.796;2023-08-24T04:26:01;20.70;58.40
75819;DHT22;64453;51.944;9.796;2023-08-24T04:28:30;20.60;58.60
75819;DHT22;64453;51.944;9.796;2023-08-24T04:30:57;20.20;59.40
75819;DHT22;64453;51.944;9.796;2023-08-24T04:33:25;20.40;59.20
75819;DHT22;64453;51.944;9.796;2023-08-24T04:35:52;20.70;58.70
75819;DHT22;64453;51.944;9.796;2023-08-24T04:38:19;20.80;58.40
75819;DHT22;64453;51.944;9.796;2023-08-24T04:40:48;20.90;58.50
75819;DHT22;64453;51.944;9.796;2023-08-24T04:43:16;20.90;58.40
75819;DHT22;64453;51.944;9.796;2023-08-24T04:45:46;20.90;58.40
75819;DHT22;64453;51.944;9.796;2023-08-24T04:48:13;20.90;58.50
75819;DHT22;64453;51.944;9.796;2023-08-24T04:50:42;21.00;58.50
75819;DHT22;64453;51.944;9.796;2023-08-24T04:53:10;21.10;58.50
75819;DHT22;64453;51.944;9.796;2023-08-24T04:55:37;21.00;58.50
75819;DHT22;64453;51.944;9.796;2023-08-24T04:58:04;21.00;58.60
75819;DHT22;64453;51.944;9.796;2023-08-24T05:00:31;20.90;58.50
75819;DHT22;64453;51.944;9.796;2023-08-24T05:02:59;20.80;58.90
75819;DHT22;64453;51.944;9.796;2023-08-24T05:05:26;20.70;59.20
75819;DHT22;64453;51.944;9.796;2023-08-24T05:07:54;20.80;59.30
75819;DHT22;64453;51.944;9.796;2023-08-24T05:10:21;20.70;59.70
75819;DHT22;64453;51.944;9.796;2023-08-24T05:12:48;20.60;60.50
75819;DHT22;64453;51.944;9.796;2023-08-24T05:15:15;20.60;60.90
75819;DHT22;64453;51.944;9.796;2023-08-24T05:17:42;20.70;60.80
75819;DHT22;64453;51.944;9.796;2023-08-24T05:20:10;20.80;61.00
75819;DHT22;64453;51.944;9.796;2023-08-24T05:22:37;21.00;61.10
75819;DHT22;64453;51.944;9.796;2023-08-24T05:25:06;21.00;61.40
75819;DHT22;64453;51.944;9.796;2023-08-24T05:27:34;21.20;62.30
75819;DHT22;64453;51.944;9.796;2023-08-24T05:30:00;21.30;61.50
75819;DHT22;64453;51.944;9.796;2023-08-24T05:32:27;21.40;61.70
75819;DHT22;64453;51.944;9.796;2023-08-24T05:34:54;21.40;60.50
75819;DHT22;64453;51.944;9.796;2023-08-24T05:37:21;21.30;60.40
75819;DHT22;64453;51.944;9.796;2023-08-24T05:39:48;20.90;61.60
75819;DHT22;64453;51.944;9.796;2023-08-24T05:42:16;20.90;62.60
75819;DHT22;64453;51.944;9.796;2023-08-24T05:44:43;21.30;62.50
75819;DHT22;64453;51.944;9.796;2023-08-24T05:47:10;21.40;62.40
75819;DHT22;64453;51.944;9.796;2023-08-24T05:49:38;21.50;62.50
75819;DHT22;64453;51.944;9.796;2023-08-24T05:52:05;21.60;62.30
75819;DHT22;64453;51.944;9.796;2023-08-24T05:54:32;21.60;62.20
75819;DHT22;64453;51.944;9.796;2023-08-24T05:56:59;21.60;62.20
75819;DHT22;64453;51.944;9.796;2023-08-24T05:59:27;21.60;62.40
75819;DHT22;64453;51.944;9.796;2023-08-24T06:01:54;21.50;62.70
75819;DHT22;64453;51.944;9.796;2023-08-24T06:04:21;21.50;63.50
75819;DHT22;64453;51.944;9.796;2023-08-24T06:06:48;21.50;63.50
75819;DHT22;64453;51.944;9.796;2023-08-24T06:09:15;21.60;63.60
75819;DHT22;64453;51.944;9.796;2023-08-24T06:11:42;21.70;63.20
75819;DHT22;64453;51.944;9.796;2023-08-24T06:14:09;21.80;63.60
75819;DHT22;64453;51.944;9.796;2023-08-24T06:16:37;21.80;63.80
75819;DHT22;64453;51.944;9.796;2023-08-24T06:19:04;21.70;63.30
75819;DHT22;64453;51.944;9.796;2023-08-24T06:21:31;21.80;63.80
75819;DHT22;64453;51.944;9.796;2023-08-24T06:23:58;21.80;63.70
75819;DHT22;64453;51.944;9.796;2023-08-24T06:26:26;21.90;64.20
75819;DHT22;64453;51.944;9.796;2023-08-24T06:28:53;21.90;64.30
75819;DHT22;64453;51.944;9.796;2023-08-24T06:31:21;21.90;64.10
75819;DHT22;64453;51.944;9.796;2023-08-24T06:33:49;21.90;64.10
75819;DHT22;64453;51.944;9.796;2023-08-24T06:36:16;22.00;64.30
75819;DHT22;64453;51.944;9.796;2023-08-24T06:38:43;22.00;64.40
75819;DHT22;64453;51.944;9.796;2023-08-24T06:41:10;22.00;64.90
75819;DHT22;64453;51.944;9.796;2023-08-24T06:43:37;22.00;64.00
75819;DHT22;64453;51.944;9.796;2023-08-24T06:46:05;22.00;63.60
75819;DHT22;64453;51.944;9.796;2023-08-24T06:48:33;21.90;63.90
75819;DHT22;64453;51.944;9.796;2023-08-24T06:51:02;22.10;64.70
75819;DHT22;64453;51.944;9.796;2023-08-24T06:53:29;22.00;63.90
75819;DHT22;64453;51.944;9.796;2023-08-24T06:55:56;22.00;63.50
75819;DHT22;64453;51.944;9.796;2023-08-24T06:58:23;22.10;63.70
75819;DHT22;64453;51.944;9.796;2023-08-24T07:00:50;22.10;64.20
75819;DHT22;64453;51.944;9.796;2023-08-24T07:03:17;22.10;64.60
75819;DHT22;64453;51.944;9.796;2023-08-24T07:05:44;22.00;64.60
75819;DHT22;64453;51.944;9.796;2023-08-24T07:08:12;22.00;65.10
75819;DHT22;64453;51.944;9.796;2023-08-24T07:10:40;22.10;65.50
75819;DHT22;64453;51.944;9.796;2023-08-24T07:13:07;22.10;66.60
75819;DHT22;64453;51.944;9.796;2023-08-24T07:15:35;22.20;66.80
75819;DHT22;64453;51.944;9.796;2023-08-24T07:18:02;22.10;67.00
75819;DHT22;64453;51.944;9.796;2023-08-24T07:20:31;22.10;67.60
75819;DHT22;64453;51.944;9.796;2023-08-24T07:22:58;22.20;67.80
75819;DHT22;64453;51.944;9.796;2023-08-24T07:25:26;22.20;68.00
75819;DHT22;64453;51.944;9.796;2023-08-24T07:27:54;22.20;67.50
75819;DHT22;64453;51.944;9.796;2023-08-24T07:30:24;22.20;67.50
75819;DHT22;64453;51.944;9.796;2023-08-24T07:32:51;22.30;67.50
75819;DHT22;64453;51.944;9.796;2023-08-24T07:35:19;22.40;68.20
75819;DHT22;64453;51.944;9.796;2023-08-24T07:37:46;22.50;68.10
75819;DHT22;64453;51.944;9.796;2023-08-24T07:40:14;22.50;68.10
75819;DHT22;64453;51.944;9.796;2023-08-24T07:42:46;22.50;68.00
75819;DHT22;64453;51.944;9.796;2023-08-24T07:45:16;22.60;67.50
75819;DHT22;64453;51.944;9.796;2023-08-24T07:47:43;22.70;67.60
75819;DHT22;64453;51.944;9.796;2023-08-24T07:50:10;22.60;68.10
75819;DHT22;64453;51.944;9.796;2023-08-24T07:52:38;22.70;68.40
75819;DHT22;64453;51.944;9.796;2023-08-24T07:55:06;22.80;68.30
75819;DHT22;64453;51.944;9.796;2023-08-24T07:57:34;22.80;67.80
75819;DHT22;64453;51.944;9.796;2023-08-24T08:00:03;22.90;67.30
75819;DHT22;64453;51.944;9.796;2023-08-24T08:02:31;22.80;67.80
75819;DHT22;64453;51.944;9.796;2023-08-24T08:04:59;22.90;67.10
75819;DHT22;64453;51.944;9.796;2023-08-24T08:07:26;23.00;66.60
75819;DHT22;64453;51.944;9.796;2023-08-24T08:09:54;23.00;66.30
75819;DHT22;64453;51.944;9.796;2023-08-24T08:12:22;23.00;66.80
75819;DHT22;64453;51.944;9.796;2023-08-24T08:14:49;23.10;66.90
75819;DHT22;64453;51.944;9.796;2023-08-24T08:17:18;23.10;66.30
75819;DHT22;64453;51.944;9.796;2023-08-24T08:19:44;23.10;65.90
75819;DHT22;64453;51.944;9.796;2023-08-24T08:22:12;23.20;65.90
75819;DHT22;64453;51.944;9.796;2023-08-24T08:24:39;23.10;65.10
75819;DHT22;64453;51.944;9.796;2023-08-24T08:27:06;23.00;65.90
75819;DHT22;64453;51.944;9.796;2023-08-24T08:29:33;23.20;65.80
75819;DHT22;64453;51.944;9.796;2023-08-24T08:32:00;23.20;65.50
75819;DHT22;64453;51.944;9.796;2023-08-24T08:34:28;23.30;65.80
75819;DHT22;64453;51.944;9.796;2023-08-24T08:36:55;23.40;65.60
75819;DHT22;64453;51.944;9.796;2023-08-24T08:39:22;23.40;65.50
75819;DHT22;64453;51.944;9.796;2023-08-24T08:41:49;23.40;65.30
75819;DHT22;64453;51.944;9.796;2023-08-24T08:44:17;23.50;65.70
75819;DHT22;64453;51.944;9.796;2023-08-24T08:46:45;23.50;65.60
75819;DHT22;64453;51.944;9.796;2023-08-24T08:49:13;23.50;65.00
75819;DHT22;64453;51.944;9.796;2023-08-24T08:51:44;23.50;65.00
75819;DHT22;64453;51.944;9.796;2023-08-24T08:54:11;23.50;64.80
75819;DHT22;64453;51.944;9.796;2023-08-24T08:56:38;23.60;64.40
75819;DHT22;64453;51.944;9.796;2023-08-24T08:59:07;23.50;64.10
75819;DHT22;64453;51.944;9.796;2023-08-24T09:01:36;23.60;63.90
75819;DHT22;64453;51.944;9.796;2023-08-24T09:04:04;23.50;64.10
75819;DHT22;64453;51.944;9.796;2023-08-24T09:06:33;23.50;64.30
75819;DHT22;64453;51.944;9.796;2023-08-24T09:09:02;23.40;63.70
75819;DHT22;64453;51.944;9.796;2023-08-24T09:11:30;23.50;63.80
75819;DHT22;64453;51.944;9.796;2023-08-24T09:13:57;23.60;63.70
75819;DHT22;64453;51.944;9.796;2023-08-24T09:16:29;23.70;63.50
75819;DHT22;64453;51.944;9.796;2023-08-24T09:18:57;23.70;64.10
75819;DHT22;64453;51.944;9.796;2023-08-24T09:21:24;23.80;64.70
75819;DHT22;64453;51.944;9.796;2023-08-24T09:23:53;23.70;63.90
75819;DHT22;64453;51.944;9.796;2023-08-24T09:26:28;23.80;63.50
75819;DHT22;64453;51.944;9.796;2023-08-24T09:28:56;23.80;63.80
75819;DHT22;64453;51.944;9.796;2023-08-24T09:31:23;23.80;64.20
75819;DHT22;64453;51.944;9.796;2023-08-24T09:34:02;23.80;64.90
75819;DHT22;64453;51.944;9.796;2023-08-24T09:36:31;23.80;64.80
75819;DHT22;64453;51.944;9.796;2023-08-24T09:38:59;23.80;64.40
75819;DHT22;64453;51.944;9.796;2023-08-24T09:41:38;23.80;65.10
75819;DHT22;64453;51.944;9.796;2023-08-24T09:44:05;23.90;65.30
75819;DHT22;64453;51.944;9.796;2023-08-24T09:46:32;23.90;65.00
75819;DHT22;64453;51.944;9.796;2023-08-24T09:48:59;23.90;65.40
75819;DHT22;64453;51.944;9.796;2023-08-24T09:51:27;23.90;65.00
75819;DHT22;64453;51.944;9.796;2023-08-24T09:53:57;23.90;65.40
75819;DHT22;64453;51.944;9.796;2023-08-24T09:56:25;24.00;66.00
75819;DHT22;64453;51.944;9.796;2023-08-24T09:59:00;24.00;65.30
75819;DHT22;64453;51.944;9.796;2023-08-24T10:01:34;24.00;65.50
75819;DHT22;64453;51.944;9.796;2023-08-24T10:04:05;24.10;65.50
75819;DHT22;64453;51.944;9.796;2023-08-24T10:06:36;24.10;64.60
75819;DHT22;64453;51.944;9.796;2023-08-24T10:09:07;24.10;64.10
75819;DHT22;64453;51.944;9.796;2023-08-24T10:11:42;24.20;64.10
75819;DHT22;64453;51.944;9.796;2023-08-24T10:14:19;24.20;64.30
75819;DHT22;64453;51.944;9.796;2023-08-24T10:16:48;24.20;64.50
75819;DHT22;64453;51.944;9.796;2023-08-24T10:19:17;24.30;63.80
75819;DHT22;64453;51.944;9.796;2023-08-24T10:21:45;24.30;64.50
75819;DHT22;64453;51.944;9.796;2023-08-24T10:24:12;24.30;62.70
75819;DHT22;64453;51.944;9.796;2023-08-24T10:26:39;24.40;63.10
75819;DHT22;64453;51.944;9.796;2023-08-24T10:29:07;24.50;63.60
75819;DHT22;64453;51.944;9.796;2023-08-24T10:31:36;24.50;63.50
75819;DHT22;64453;51.944;9.796;2023-08-24T10:34:05;24.50;63.30
75819;DHT22;64453;51.944;9.796;2023-08-24T10:36:33;24.60;63.60
75819;DHT22;64453;51.944;9.796;2023-08-24T10:39:02;24.60;63.20
75819;DHT22;64453;51.944;9.796;2023-08-24T10:41:46;24.60;64.60
75819;DHT22;64453;51.944;9.796;2023-08-24T10:44:20;24.70;64.50
75819;DHT22;64453;51.944;9.796;2023-08-24T10:47:12;24.80;65.70
75819;DHT22;64453;51.944;9.796;2023-08-24T10:49:40;24.80;64.00
75819;DHT22;64453;51.944;9.796;2023-08-24T10:52:18;24.80;63.60
75819;DHT22;64453;51.944;9.796;2023-08-24T10:54:46;24.80;63.70
75819;DHT22;64453;51.944;9.796;2023-08-24T10:57:21;24.90;64.60
75819;DHT22;64453;51.944;9.796;2023-08-24T11:00:05;24.90;63.70
75819;DHT22;64453;51.944;9.796;2023-08-24T11:02:46;25.00;64.80
75819;DHT22;64453;51.944;9.796;2023-08-24T11:05:18;24.90;63.10
75819;DHT22;64453;51.944;9.796;2023-08-24T11:07:55;25.00;63.90
75819;DHT22;64453;51.944;9.796;2023-08-24T11:10:24;25.00;62.20
75819;DHT22;64453;51.944;9.796;2023-08-24T11:13:07;25.00;63.40
75819;DHT22;64453;51.944;9.796;2023-08-24T11:15:39;25.00;62.90
75819;DHT22;64453;51.944;9.796;2023-08-24T11:18:19;25.00;61.70
75819;DHT22;64453;51.944;9.796;2023-08-24T11:20:49;25.10;61.90
75819;DHT22;64453;51.944;9.796;2023-08-24T11:23:18;25.10;62.10
75819;DHT22;64453;51.944;9.796;2023-08-24T11:25:45;25.10;63.00
75819;DHT22;64453;51.944;9.796;2023-08-24T11:28:17;25.20;63.00
75819;DHT22;64453;51.944;9.796;2023-08-24T11:30:45;25.10;60.90
75819;DHT22;64453;51.944;9.796;2023-08-24T11:33:14;25.20;60.90
75819;DHT22;64453;51.944;9.796;2023-08-24T11:35:44;25.20;61.60
75819;DHT22;64453;51.944;9.796;2023-08-24T11:38:11;25.20;61.10
75819;DHT22;64453;51.944;9.796;2023-08-24T11:40:39;25.40;60.80
75819;DHT22;64453;51.944;9.796;2023-08-24T11:43:06;25.40;61.30
75819;DHT22;64453;51.944;9.796;2023-08-24T11:45:35;25.40;62.90
75819;DHT22;64453;51.944;9.796;2023-08-24T11:48:04;25.50;62.60
75819;DHT22;64453;51.944;9.796;2023-08-24T11:50:33;25.40;61.50
75819;DHT22;64453;51.944;9.796;2023-08-24T11:53:01;25.40;58.10
75819;DHT22;64453;51.944;9.796;2023-08-24T11:55:28;25.40;58.00
75819;DHT22;64453;51.944;9.796;2023-08-24T11:57:55;25.60;58.00
75819;DHT22;64453;51.944;9.796;2023-08-24T12:00:22;25.70;58.40
75819;DHT22;64453;51.944;9.796;2023-08-24T12:02:50;25.70;59.10
75819;DHT22;64453;51.944;9.796;2023-08-24T12:05:21;25.70;59.70
75819;DHT22;64453;51.944;9.796;2023-08-24T12:07:51;25.70;58.90
75819;DHT22;64453;51.944;9.796;2023-08-24T12:10:19;25.80;58.30
75819;DHT22;64453;51.944;9.796;2023-08-24T12:12:46;25.80;58.60
75819;DHT22;64453;51.944;9.796;2023-08-24T12:15:17;25.90;59.30
75819;DHT22;64453;51.944;9.796;2023-08-24T12:17:45;25.90;58.70
75819;DHT22;64453;51.944;9.796;2023-08-24T12:20:18;25.90;59.50
75819;DHT22;64453;51.944;9.796;2023-08-24T12:22:52;25.90;58.80
75819;DHT22;64453;51.944;9.796;2023-08-24T12:25:22;26.00;57.50
75819;DHT22;64453;51.944;9.796;2023-08-24T12:27:50;26.00;57.90
75819;DHT22;64453;51.944;9.796;2023-08-24T12:30:18;26.00;58.00
75819;DHT22;64453;51.944;9.796;2023-08-24T12:32:47;26.00;58.00
75819;DHT22;64453;51.944;9.796;2023-08-24T12:35:16;26.10;58.40
75819;DHT22;64453;51.944;9.796;2023-08-24T12:37:43;26.10;57.80
75819;DHT22;64453;51.944;9.796;2023-08-24T12:40:12;26.10;58.30
75819;DHT22;64453;51.944;9.796;2023-08-24T12:42:40;26.20;58.10
75819;DHT22;64453;51.944;9.796;2023-08-24T12:45:08;26.20;57.10
75819;DHT22;64453;51.944;9.796;2023-08-24T12:47:35;26.20;56.50
75819;DHT22;64453;51.944;9.796;2023-08-24T12:50:05;26.20;56.50
75819;DHT22;64453;51.944;9.796;2023-08-24T12:52:33;26.20;55.90
75819;DHT22;64453;51.944;9.796;2023-08-24T12:55:00;26.20;56.00
75819;DHT22;64453;51.944;9.796;2023-08-24T12:57:29;26.30;54.90
75819;DHT22;64453;51.944;9.796;2023-08-24T12:59:56;26.30;54.90
75819;DHT22;64453;51.944;9.796;2023-08-24T13:02:23;26.30;54.80
75819;DHT22;64453;51.944;9.796;2023-08-24T13:04:50;26.40;55.10
75819;DHT22;64453;51.944;9.796;2023-08-24T13:07:17;26.50;54.60
75819;DHT22;64453;51.944;9.796;2023-08-24T13:09:44;26.50;54.30
75819;DHT22;64453;51.944;9.796;2023-08-24T13:12:11;26.60;54.10
75819;DHT22;64453;51.944;9.796;2023-08-24T13:14:39;26.70;54.20
75819;DHT22;64453;51.944;9.796;2023-08-24T13:17:06;26.70;54.30
75819;DHT22;64453;51.944;9.796;2023-08-24T13:19:33;26.80;53.90
75819;DHT22;64453;51.944;9.796;2023-08-24T13:22:00;26.80;53.70
75819;DHT22;64453;51.944;9.796;2023-08-24T13:24:27;26.90;52.40
75819;DHT22;64453;51.944;9.796;2023-08-24T13:26:54;26.90;52.80
75819;DHT22;64453;51.944;9.796;2023-08-24T13:29:21;27.00;51.60
75819;DHT22;64453;51.944;9.796;2023-08-24T13:31:49;27.10;52.30
75819;DHT22;64453;51.944;9.796;2023-08-24T13:34:16;27.10;52.50
75819;DHT22;64453;51.944;9.796;2023-08-24T13:36:43;27.20;51.50
75819;DHT22;64453;51.944;9.796;2023-08-24T13:39:10;27.20;52.40
75819;DHT22;64453;51.944;9.796;2023-08-24T13:41:37;27.20;52.60
75819;DHT22;64453;51.944;9.796;2023-08-24T13:44:04;27.30;53.40
75819;DHT22;64453;51.944;9.796;2023-08-24T13:46:31;27.30;54.10
75819;DHT22;64453;51.944;9.796;2023-08-24T13:48:59;27.40;53.90
75819;DHT22;64453;51.944;9.796;2023-08-24T13:51:26;27.40;55.10
75819;DHT22;64453;51.944;9.796;2023-08-24T13:53:53;27.40;53.50
75819;DHT22;64453;51.944;9.796;2023-08-24T13:56:20;27.50;54.70
75819;DHT22;64453;51.944;9.796;2023-08-24T13:58:47;27.50;54.60
75819;DHT22;64453;51.944;9.796;2023-08-24T14:01:14;27.50;53.80
75819;DHT22;64453;51.944;9.796;2023-08-24T14:03:42;27.50;54.80
75819;DHT22;64453;51.944;9.796;2023-08-24T14:06:10;27.50;55.10
75819;DHT22;64453;51.944;9.796;2023-08-24T14:08:37;27.50;54.30
75819;DHT22;64453;51.944;9.796;2023-08-24T14:11:04;27.50;54.50
75819;DHT22;64453;51.944;9.796;2023-08-24T14:13:31;27.60;52.90
75819;DHT22;64453;51.944;9.796;2023-08-24T14:15:58;27.60;52.40
75819;DHT22;64453;51.944;9.796;2023-08-24T14:18:25;27.60;52.50
75819;DHT22;64453;51.944;9.796;2023-08-24T14:20:53;27.60;52.20
75819;DHT22;64453;51.944;9.796;2023-08-24T14:23:21;27.50;52.20
75819;DHT22;64453;51.944;9.796;2023-08-24T14:25:48;27.60;52.90
75819;DHT22;64453;51.944;9.796;2023-08-24T14:28:20;27.60;52.80
75819;DHT22;64453;51.944;9.796;2023-08-24T14:30:48;27.60;52.60
75819;DHT22;64453;51.944;9.796;2023-08-24T14:33:16;27.60;53.30
75819;DHT22;64453;51.944;9.796;2023-08-24T14:35:50;27.60;52.50
75819;DHT22;64453;51.944;9.796;2023-08-24T14:38:17;27.60;52.80
75819;DHT22;64453;51.944;9.796;2023-08-24T14:40:46;27.60;53.00
75819;DHT22;64453;51.944;9.796;2023-08-24T14:43:13;27.60;53.20
75819;DHT22;64453;51.944;9.796;2023-08-24T14:45:39;27.60;52.60
75819;DHT22;64453;51.944;9.796;2023-08-24T14:48:06;27.60;52.90
75819;DHT22;64453;51.944;9.796;2023-08-24T14:50:33;27.60;53.50
75819;DHT22;64453;51.944;9.796;2023-08-24T14:53:04;27.60;54.40
75819;DHT22;64453;51.944;9.796;2023-08-24T14:55:31;27.60;54.50
75819;DHT22;64453;51.944;9.796;2023-08-24T14:58:00;27.60;54.20
75819;DHT22;64453;51.944;9.796;2023-08-24T15:00:27;27.60;53.60
75819;DHT22;64453;51.944;9.796;2023-08-24T15:02:53;27.60;52.90
75819;DHT22;64453;51.944;9.796;2023-08-24T15:05:23;27.70;53.30
75819;DHT22;64453;51.944;9.796;2023-08-24T15:07:50;27.60;53.70
75819;DHT22;64453;51.944;9.796;2023-08-24T15:10:17;27.60;54.40
75819;DHT22;64453;51.944;9.796;2023-08-24T15:12:45;27.70;54.90
75819;DHT22;64453;51.944;9.796;2023-08-24T15:15:13;27.70;53.90
75819;DHT22;64453;51.944;9.796;2023-08-24T15:17:43;27.70;54.40
75819;DHT22;64453;51.944;9.796;2023-08-24T15:20:11;27.80;55.10
75819;DHT22;64453;51.944;9.796;2023-08-24T15:22:38;27.70;55.10
75819;DHT22;64453;51.944;9.796;2023-08-24T15:25:06;27.70;54.90
75819;DHT22;64453;51.944;9.796;2023-08-24T15:27:35;27.70;56.10
75819;DHT22;64453;51.944;9.796;2023-08-24T15:30:03;27.80;55.40
75819;DHT22;64453;51.944;9.796;2023-08-24T15:32:32;27.70;54.50
75819;DHT22;64453;51.944;9.796;2023-08-24T15:34:59;27.70;54.90
75819;DHT22;64453;51.944;9.796;2023-08-24T15:37:26;27.70;55.30